»·PEaware :: YV153T KPDX-KSEA

YV153T :: KPDX-KSEA

FLIGHT INFORMATION

Flight Status: Arrived
Operator: Privately registered:
Venezuela
More flights under this callsign
Pilot: Jose A. (17505)
Aircraft: MCDONNELL-DOUGLAS MD-88
(MD88)
More flights by this aircraft type
Origin: KPDX Portland Intl
United States
Destination: KSEA Seattle-Tacoma Intl
United States
More flights between these airports :: More routes between these airports
Route: +COUGA KRIEG HAWKZ6
File this flight plan on PilotEdge
Remarks: DOF / 180314 REG / YV153T OPR / ASERCA AIRLINES
Altitude:
(Current/Filed)
16,000ft
Speed:
(Current/Filed)
355kts
Departed: 13-Mar-18 07:11 PM
Arrived: 13-Mar-18 07:46 PM
Distance/Time
Traveled:
112nm/0:35
Distance/Time
To Go:
Arrived

Flight Plot

Page will automatically refresh every two minutes.

Flight plan parsing failed; only flown route is shown


Map Options




Map Legend


Flown Route
Filed Route
Departure Airport
Arrival Airport
Navaid (VOR, NDB)
Fix

Horizontal Profiles

Position Reports

Time Latitude Longitude Heading Altitude Ground
Speed
13-Mar-18 18:23 45.591195 -122.594035 208 36ft 0kts
13-Mar-18 18:24 45.591195 -122.594035 208 36ft 0kts
13-Mar-18 18:25 45.591195 -122.594035 208 36ft 0kts
13-Mar-18 18:26 45.591195 -122.594035 208 36ft 0kts
13-Mar-18 18:27 45.591195 -122.594035 208 36ft 0kts
13-Mar-18 18:28 45.591195 -122.594035 208 35ft 0kts
13-Mar-18 18:29 45.591195 -122.594035 208 35ft 0kts
13-Mar-18 18:30 45.591195 -122.594035 208 35ft 0kts
13-Mar-18 18:31 45.591195 -122.594035 208 35ft 0kts
13-Mar-18 18:32 45.591195 -122.594035 208 35ft 0kts
13-Mar-18 18:33 45.591195 -122.594035 208 35ft 0kts
13-Mar-18 18:34 45.591195 -122.594035 208 35ft 0kts
13-Mar-18 18:35 45.591195 -122.594035 208 35ft 0kts
13-Mar-18 18:36 45.591195 -122.594035 208 35ft 0kts
13-Mar-18 18:37 45.591195 -122.594035 208 35ft 0kts
13-Mar-18 18:38 45.591195 -122.594035 208 35ft 0kts
13-Mar-18 18:39 45.591195 -122.594035 208 35ft 0kts
13-Mar-18 18:40 45.591195 -122.594035 208 35ft 0kts
13-Mar-18 18:41 45.591195 -122.594035 208 35ft 0kts
13-Mar-18 18:42 45.591195 -122.594035 208 35ft 0kts
13-Mar-18 18:43 45.591195 -122.594035 208 35ft 0kts
13-Mar-18 18:44 45.591195 -122.594035 208 35ft 0kts
13-Mar-18 18:45 45.591195 -122.594035 208 35ft 0kts
13-Mar-18 18:46 45.591195 -122.594035 208 35ft 0kts
13-Mar-18 18:47 45.591195 -122.594035 208 35ft 0kts
13-Mar-18 18:48 45.591195 -122.594035 208 35ft 0kts
13-Mar-18 18:49 45.591195 -122.594035 208 35ft 0kts
13-Mar-18 18:50 45.591195 -122.594035 208 35ft 0kts
13-Mar-18 18:51 45.591195 -122.594035 208 35ft 0kts
13-Mar-18 18:52 45.591195 -122.594035 208 35ft 0kts
13-Mar-18 18:53 45.591198 -122.594032 208 35ft 0kts
13-Mar-18 18:54 45.591658 -122.593682 211 35ft 1kts
13-Mar-18 18:55 45.591379 -122.593757 196 35ft 0kts
13-Mar-18 18:56 45.591379 -122.593757 196 35ft 0kts
13-Mar-18 18:57 45.591596 -122.593340 305 35ft 0kts
13-Mar-18 18:58 45.591596 -122.593340 305 35ft 0kts
13-Mar-18 18:59 45.591596 -122.593340 305 35ft 0kts
13-Mar-18 19:00 45.591596 -122.593340 305 35ft 0kts
13-Mar-18 19:01 45.591596 -122.593340 305 35ft 0kts
13-Mar-18 19:02 45.591880 -122.593679 318 35ft 9kts
13-Mar-18 19:03 45.593041 -122.597457 245 35ft 13kts
13-Mar-18 19:04 45.591380 -122.601451 269 35ft 10kts
13-Mar-18 19:05 45.591384 -122.602268 270 35ft 0kts
13-Mar-18 19:06 45.591403 -122.606798 279 35ft 14kts
13-Mar-18 19:07 45.593415 -122.612189 299 35ft 16kts
13-Mar-18 19:08 45.595498 -122.617565 298 35ft 9kts
13-Mar-18 19:09 45.595726 -122.620841 209 35ft 11kts
13-Mar-18 19:10 45.592615 -122.614937 118 35ft 91kts
13-Mar-18 19:11 45.571014 -122.558049 117 1569ft 187kts
13-Mar-18 19:12 45.542204 -122.480831 103 3328ft 269kts
13-Mar-18 19:13 45.584696 -122.409986 354 6749ft 290kts
13-Mar-18 19:14 45.652782 -122.462557 327 9998ft 290kts
13-Mar-18 19:15 45.738942 -122.511191 337 11530ft 365kts
13-Mar-18 19:16 45.836054 -122.557594 341 13911ft 390kts
13-Mar-18 19:17 45.936720 -122.604680 341 15973ft 401kts
13-Mar-18 19:18 46.048155 -122.656847 341 16019ft 438kts
13-Mar-18 19:19 46.155511 -122.693409 355 16014ft 439kts
13-Mar-18 19:20 46.275297 -122.713941 353 16006ft 440kts
13-Mar-18 19:21 46.396883 -122.725404 0 16007ft 439kts
13-Mar-18 19:22 46.517990 -122.729594 0 15990ft 439kts
13-Mar-18 19:23 46.639711 -122.734147 0 15944ft 440kts
13-Mar-18 19:24 46.752420 -122.738237 359 12761ft 383kts
13-Mar-18 19:25 46.841980 -122.675529 45 11992ft 364kts
13-Mar-18 19:26 46.917398 -122.585871 42 11977ft 332kts
13-Mar-18 19:27 47.000236 -122.533364 17 11985ft 328kts
13-Mar-18 19:28 47.086915 -122.498636 11 11513ft 331kts
13-Mar-18 19:29 47.173922 -122.482794 5 10534ft 322kts
13-Mar-18 19:30 47.259489 -122.469342 3 9462ft 294kts
13-Mar-18 19:31 47.338118 -122.457499 5 8011ft 277kts
13-Mar-18 19:32 47.414499 -122.455120 359 7286ft 273kts
13-Mar-18 19:33 47.478227 -122.455311 0 6014ft 260kts
13-Mar-18 19:34 47.547279 -122.455927 359 6093ft 243kts
13-Mar-18 19:35 47.615634 -122.457021 0 6001ft 247kts
13-Mar-18 19:36 47.684263 -122.458059 0 5114ft 243kts
13-Mar-18 19:37 47.725105 -122.411765 95 4156ft 208kts
13-Mar-18 19:38 47.711936 -122.337597 144 4041ft 200kts
13-Mar-18 19:39 47.663266 -122.305834 183 4034ft 203kts
13-Mar-18 19:40 47.615362 -122.309794 176 3326ft 143kts
13-Mar-18 19:41 47.577813 -122.310075 176 2579ft 134kts
13-Mar-18 19:42 47.539896 -122.310735 172 1969ft 140kts
13-Mar-18 19:43 47.502850 -122.311227 175 1152ft 141kts
13-Mar-18 19:44 47.463328 -122.311037 177 435ft 142kts
13-Mar-18 19:45 47.444902 -122.309671 150 386ft 11kts
13-Mar-18 19:46 47.443491 -122.307244 95 383ft 6kts
13-Mar-18 19:47 47.440878 -122.306365 180 376ft 13kts
13-Mar-18 19:48 47.439981 -122.303086 67 374ft 7kts
13-Mar-18 19:49 47.441181 -122.301765 45 376ft 4kts
13-Mar-18 19:50 47.441499 -122.301287 45 377ft 0kts
13-Mar-18 19:51 47.441499 -122.301287 45 377ft 0kts

Navigation Log

Ident Type
Flight plan parsing failed, navigation log unavailable